sensor_id;sensor_type;location;lat;lon;timestamp;pressure;altitude;pressure_sealevel;temperature;humidity
49801;BME280;35698;50.232;30.540;2023-04-23T00:00:15;100339.62;;;14.94;53.99
49801;BME280;35698;50.232;30.540;2023-04-23T00:01:22;100340.41;;;14.83;54.06
49801;BME280;35698;50.232;30.540;2023-04-23T00:02:44;100344.83;;;14.95;54.38
49801;BME280;35698;50.232;30.540;2023-04-23T00:03:48;100345.50;;;14.86;54.48
49801;BME280;35698;50.232;30.540;2023-04-23T00:05:03;100349.64;;;14.90;54.67
49801;BME280;35698;50.232;30.540;2023-04-23T00:06:13;100340.47;;;14.94;54.66
49801;BME280;35698;50.232;30.540;2023-04-23T00:07:35;100353.48;;;15.10;54.70
49801;BME280;35698;50.232;30.540;2023-04-23T00:08:40;100350.99;;;14.96;54.47
49801;BME280;35698;50.232;30.540;2023-04-23T00:10:05;100344.15;;;15.04;54.12
49801;BME280;35698;50.232;30.540;2023-04-23T00:11:12;100351.11;;;14.94;54.30
49801;BME280;35698;50.232;30.540;2023-04-23T00:12:16;100349.64;;;14.90;54.16
49801;BME280;35698;50.232;30.540;2023-04-23T00:13:36;100349.75;;;14.89;54.33
49801;BME280;35698;50.232;30.540;2023-04-23T00:14:40;100350.86;;;14.73;54.65
49801;BME280;35698;50.232;30.540;2023-04-23T00:15:54;100340.74;;;14.79;55.04
49801;BME280;35698;50.232;30.540;2023-04-23T00:16:58;100347.09;;;14.65;54.58
49801;BME280;35698;50.232;30.540;2023-04-23T00:18:11;100349.80;;;14.76;54.79
49801;BME280;35698;50.232;30.540;2023-04-23T00:19:18;100338.05;;;14.67;54.91
49801;BME280;35698;50.232;30.540;2023-04-23T00:20:41;100351.38;;;14.79;54.57
49801;BME280;35698;50.232;30.540;2023-04-23T00:21:44;100346.98;;;14.66;54.34
49801;BME280;35698;50.232;30.540;2023-04-23T00:23:06;100354.22;;;14.64;54.35
49801;BME280;35698;50.232;30.540;2023-04-23T00:24:20;100355.00;;;14.78;54.29
49801;BME280;35698;50.232;30.540;2023-04-23T00:25:23;100349.23;;;14.60;53.90
49801;BME280;35698;50.232;30.540;2023-04-23T00:26:45;100352.85;;;14.59;53.39
49801;BME280;35698;50.232;30.540;2023-04-23T00:27:58;100355.70;;;14.68;53.98
49801;BME280;35698;50.232;30.540;2023-04-23T00:29:02;100354.98;;;14.54;54.26
49801;BME280;35698;50.232;30.540;2023-04-23T00:30:24;100354.03;;;14.55;54.52
49801;BME280;35698;50.232;30.540;2023-04-23T00:31:45;100357.53;;;14.55;54.91
49801;BME280;35698;50.232;30.540;2023-04-23T00:32:48;100352.00;;;14.58;55.46
49801;BME280;35698;50.232;30.540;2023-04-23T00:33:52;100363.27;;;14.62;55.67
49801;BME280;35698;50.232;30.540;2023-04-23T00:34:56;100359.53;;;14.64;56.02
49801;BME280;35698;50.232;30.540;2023-04-23T00:36:12;100361.16;;;14.78;56.34
49801;BME280;35698;50.232;30.540;2023-04-23T00:37:16;100356.66;;;14.67;55.90
49801;BME280;35698;50.232;30.540;2023-04-23T00:38:37;100361.98;;;14.67;55.41
49801;BME280;35698;50.232;30.540;2023-04-23T00:39:59;100362.09;;;14.66;55.37
49801;BME280;35698;50.232;30.540;2023-04-23T00:41:12;100363.20;;;14.74;55.33
49801;BME280;35698;50.232;30.540;2023-04-23T00:42:17;100355.40;;;14.60;55.39
49801;BME280;35698;50.232;30.540;2023-04-23T00:43:38;100361.05;;;14.56;55.46
49801;BME280;35698;50.232;30.540;2023-04-23T00:45:00;100360.63;;;14.49;55.31
49801;BME280;35698;50.232;30.540;2023-04-23T00:46:20;100354.88;;;14.55;55.48
49801;BME280;35698;50.232;30.540;2023-04-23T00:47:25;100367.34;;;14.42;55.69
49801;BME280;35698;50.232;30.540;2023-04-23T00:48:47;100363.39;;;14.35;55.77
49801;BME280;35698;50.232;30.540;2023-04-23T00:50:10;100373.49;;;14.30;55.91
49801;BME280;35698;50.232;30.540;2023-04-23T00:51:29;100365.30;;;14.33;55.75
49801;BME280;35698;50.232;30.540;2023-04-23T00:52:44;100367.97;;;14.20;56.22
49801;BME280;35698;50.232;30.540;2023-04-23T00:54:04;100364.78;;;14.28;55.99
49801;BME280;35698;50.232;30.540;2023-04-23T00:55:08;100367.45;;;14.15;55.81
49801;BME280;35698;50.232;30.540;2023-04-23T00:56:12;100365.64;;;14.16;55.60
49801;BME280;35698;50.232;30.540;2023-04-23T00:57:35;100370.10;;;14.15;55.08
49801;BME280;35698;50.232;30.540;2023-04-23T00:59:02;100364.89;;;14.26;54.89
49801;BME280;35698;50.232;30.540;2023-04-23T01:00:06;100360.97;;;14.19;54.94
49801;BME280;35698;50.232;30.540;2023-04-23T01:04:04;100362.27;;;13.75;56.24
49801;BME280;35698;50.232;30.540;2023-04-23T01:06:49;100372.14;;;13.73;56.74
49801;BME280;35698;50.232;30.540;2023-04-23T01:08:13;100360.89;;;13.83;56.85
49801;BME280;35698;50.232;30.540;2023-04-23T01:09:17;100367.99;;;13.69;57.17
49801;BME280;35698;50.232;30.540;2023-04-23T01:10:21;100366.39;;;13.67;57.19
49801;BME280;35698;50.232;30.540;2023-04-23T01:11:28;100360.98;;;13.68;57.11
49801;BME280;35698;50.232;30.540;2023-04-23T01:12:42;100362.16;;;13.77;56.95
49801;BME280;35698;50.232;30.540;2023-04-23T01:13:46;100363.84;;;13.65;56.70
49801;BME280;35698;50.232;30.540;2023-04-23T01:15:02;100362.37;;;13.74;56.56
49801;BME280;35698;50.232;30.540;2023-04-23T01:16:05;100361.30;;;13.64;56.44
49801;BME280;35698;50.232;30.540;2023-04-23T01:17:10;100364.80;;;13.64;56.34
49801;BME280;35698;50.232;30.540;2023-04-23T01:18:13;100369.16;;;13.65;56.23
49801;BME280;35698;50.232;30.540;2023-04-23T01:19:27;100368.42;;;13.76;56.25
49801;BME280;35698;50.232;30.540;2023-04-23T01:20:31;100373.51;;;13.66;56.54
49801;BME280;35698;50.232;30.540;2023-04-23T01:23:20;100375.20;;;13.67;56.51
49801;BME280;35698;50.232;30.540;2023-04-23T01:24:23;100367.99;;;13.69;56.84
49801;BME280;35698;50.232;30.540;2023-04-23T01:25:45;100369.59;;;13.72;56.78
49801;BME280;35698;50.232;30.540;2023-04-23T01:27:01;100376.37;;;13.89;57.16
49801;BME280;35698;50.232;30.540;2023-04-23T01:28:05;100369.91;;;13.80;56.90
49801;BME280;35698;50.232;30.540;2023-04-23T01:29:27;100365.45;;;13.81;56.70
49801;BME280;35698;50.232;30.540;2023-04-23T01:30:32;100364.50;;;13.82;56.69
49801;BME280;35698;50.232;30.540;2023-04-23T01:31:45;100367.23;;;13.93;56.77
49801;BME280;35698;50.232;30.540;2023-04-23T01:32:50;100367.37;;;13.78;57.24
49801;BME280;35698;50.232;30.540;2023-04-23T01:34:12;100365.77;;;13.76;57.37
49801;BME280;35698;50.232;30.540;2023-04-23T01:35:34;100366.52;;;13.78;58.33
49801;BME280;35698;50.232;30.540;2023-04-23T01:36:40;100368.30;;;13.65;58.31
49801;BME280;35698;50.232;30.540;2023-04-23T01:38:04;100371.16;;;13.62;58.68
49801;BME280;35698;50.232;30.540;2023-04-23T01:39:24;100370.33;;;13.74;58.88
49801;BME280;35698;50.232;30.540;2023-04-23T01:40:28;100367.77;;;13.60;58.61
49801;BME280;35698;50.232;30.540;2023-04-23T01:41:50;100374.23;;;13.56;58.80
49801;BME280;35698;50.232;30.540;2023-04-23T01:42:53;100367.23;;;13.55;58.96
49801;BME280;35698;50.232;30.540;2023-04-23T01:44:19;100368.52;;;13.62;59.21
49801;BME280;35698;50.232;30.540;2023-04-23T01:45:23;100374.00;;;13.46;59.71
49801;BME280;35698;50.232;30.540;2023-04-23T01:46:44;100374.75;;;13.48;59.84
49801;BME280;35698;50.232;30.540;2023-04-23T01:47:50;100371.14;;;13.49;60.39
49801;BME280;35698;50.232;30.540;2023-04-23T01:49:04;100372.66;;;13.66;59.70
49801;BME280;35698;50.232;30.540;2023-04-23T01:50:10;100377.53;;;13.59;59.11
49801;BME280;35698;50.232;30.540;2023-04-23T01:51:41;100372.02;;;13.62;58.73
49801;BME280;35698;50.232;30.540;2023-04-23T01:52:45;100372.66;;;13.66;58.49
49801;BME280;35698;50.232;30.540;2023-04-23T01:53:49;100372.66;;;13.66;58.55
49801;BME280;35698;50.232;30.540;2023-04-23T01:54:52;100377.66;;;13.70;58.68
49801;BME280;35698;50.232;30.540;2023-04-23T01:56:08;100368.86;;;13.83;58.67
49801;BME280;35698;50.232;30.540;2023-04-23T01:57:12;100372.14;;;13.73;58.51
49801;BME280;35698;50.232;30.540;2023-04-23T01:58:15;100376.49;;;13.74;58.32
49801;BME280;35698;50.232;30.540;2023-04-23T01:59:36;100375.63;;;13.87;58.37
